sensor_id;sensor_type;location;lat;lon;timestamp;P1;durP1;ratioP1;P2;durP2;ratioP2
50205;SDS011;36098;48.390;10.856;2023-12-29T00:01:46;2.92;;;1.60;;
50205;SDS011;36098;48.390;10.856;2023-12-29T00:04:11;3.67;;;1.70;;
50205;SDS011;36098;48.390;10.856;2023-12-29T00:06:37;2.88;;;1.70;;
50205;SDS011;36098;48.390;10.856;2023-12-29T00:09:03;2.45;;;1.50;;
50205;SDS011;36098;48.390;10.856;2023-12-29T00:11:29;3.65;;;1.50;;
50205;SDS011;36098;48.390;10.856;2023-12-29T00:13:54;3.45;;;1.70;;
50205;SDS011;36098;48.390;10.856;2023-12-29T00:16:19;2.50;;;1.60;;
50205;SDS011;36098;48.390;10.856;2023-12-29T00:18:45;2.70;;;1.67;;
50205;SDS011;36098;48.390;10.856;2023-12-29T00:21:10;2.63;;;1.50;;
50205;SDS011;36098;48.390;10.856;2023-12-29T00:23:35;1.77;;;1.45;;
50205;SDS011;36098;48.390;10.856;2023-12-29T00:26:00;2.45;;;1.58;;
50205;SDS011;36098;48.390;10.856;2023-12-29T00:28:26;2.72;;;1.70;;
50205;SDS011;36098;48.390;10.856;2023-12-29T00:30:51;4.57;;;1.60;;
50205;SDS011;36098;48.390;10.856;2023-12-29T00:33:16;1.98;;;1.30;;
50205;SDS011;36098;48.390;10.856;2023-12-29T00:35:41;2.45;;;1.50;;
50205;SDS011;36098;48.390;10.856;2023-12-29T00:38:07;1.75;;;1.35;;
50205;SDS011;36098;48.390;10.856;2023-12-29T00:40:32;2.30;;;1.50;;
50205;SDS011;36098;48.390;10.856;2023-12-29T00:42:58;3.80;;;1.40;;
50205;SDS011;36098;48.390;10.856;2023-12-29T00:45:24;2.72;;;1.40;;
50205;SDS011;36098;48.390;10.856;2023-12-29T00:47:50;4.18;;;1.30;;
50205;SDS011;36098;48.390;10.856;2023-12-29T00:50:16;2.30;;;1.40;;
50205;SDS011;36098;48.390;10.856;2023-12-29T00:52:42;1.88;;;1.20;;
50205;SDS011;36098;48.390;10.856;2023-12-29T00:55:07;1.83;;;1.38;;
50205;SDS011;36098;48.390;10.856;2023-12-29T00:57:32;2.05;;;1.30;;
50205;SDS011;36098;48.390;10.856;2023-12-29T00:59:59;1.70;;;1.30;;
50205;SDS011;36098;48.390;10.856;2023-12-29T01:02:25;4.70;;;1.55;;
50205;SDS011;36098;48.390;10.856;2023-12-29T01:04:50;1.83;;;1.38;;
50205;SDS011;36098;48.390;10.856;2023-12-29T01:07:15;2.28;;;1.40;;
50205;SDS011;36098;48.390;10.856;2023-12-29T01:09:40;2.92;;;1.38;;
50205;SDS011;36098;48.390;10.856;2023-12-29T01:12:06;2.67;;;1.50;;
50205;SDS011;36098;48.390;10.856;2023-12-29T01:14:31;2.67;;;1.48;;
50205;SDS011;36098;48.390;10.856;2023-12-29T01:16:56;2.85;;;1.48;;
50205;SDS011;36098;48.390;10.856;2023-12-29T01:19:22;3.92;;;1.65;;
50205;SDS011;36098;48.390;10.856;2023-12-29T01:21:47;3.38;;;1.30;;
50205;SDS011;36098;48.390;10.856;2023-12-29T01:24:12;2.05;;;1.33;;
50205;SDS011;36098;48.390;10.856;2023-12-29T01:26:37;2.45;;;1.33;;
50205;SDS011;36098;48.390;10.856;2023-12-29T01:29:03;2.25;;;1.20;;
50205;SDS011;36098;48.390;10.856;2023-12-29T01:31:31;1.48;;;1.25;;
50205;SDS011;36098;48.390;10.856;2023-12-29T01:33:57;1.48;;;1.15;;
50205;SDS011;36098;48.390;10.856;2023-12-29T01:36:22;1.80;;;1.40;;
50205;SDS011;36098;48.390;10.856;2023-12-29T01:38:47;1.95;;;1.33;;
50205;SDS011;36098;48.390;10.856;2023-12-29T01:41:13;1.42;;;1.10;;
50205;SDS011;36098;48.390;10.856;2023-12-29T01:46:26;2.00;;;1.30;;
50205;SDS011;36098;48.390;10.856;2023-12-29T01:48:53;1.75;;;1.15;;
50205;SDS011;36098;48.390;10.856;2023-12-29T01:51:20;1.88;;;1.20;;
50205;SDS011;36098;48.390;10.856;2023-12-29T01:53:48;1.55;;;1.13;;
50205;SDS011;36098;48.390;10.856;2023-12-29T01:56:14;2.38;;;1.20;;
50205;SDS011;36098;48.390;10.856;2023-12-29T01:58:39;2.00;;;1.30;;
50205;SDS011;36098;48.390;10.856;2023-12-29T02:01:05;1.73;;;1.33;;
50205;SDS011;36098;48.390;10.856;2023-12-29T02:03:32;2.05;;;1.35;;
50205;SDS011;36098;48.390;10.856;2023-12-29T02:05:58;1.63;;;1.20;;
50205;SDS011;36098;48.390;10.856;2023-12-29T02:08:23;1.38;;;1.02;;
50205;SDS011;36098;48.390;10.856;2023-12-29T02:10:49;1.45;;;1.20;;
50205;SDS011;36098;48.390;10.856;2023-12-29T02:13:14;1.92;;;1.20;;
50205;SDS011;36098;48.390;10.856;2023-12-29T02:15:39;1.77;;;1.30;;
50205;SDS011;36098;48.390;10.856;2023-12-29T02:18:06;1.80;;;1.20;;
50205;SDS011;36098;48.390;10.856;2023-12-29T02:20:32;1.60;;;1.20;;
50205;SDS011;36098;48.390;10.856;2023-12-29T02:22:57;1.80;;;1.17;;
50205;SDS011;36098;48.390;10.856;2023-12-29T02:25:23;2.08;;;1.38;;
50205;SDS011;36098;48.390;10.856;2023-12-29T02:27:59;1.88;;;1.15;;
50205;SDS011;36098;48.390;10.856;2023-12-29T02:30:38;1.60;;;1.10;;
50205;SDS011;36098;48.390;10.856;2023-12-29T02:33:11;2.17;;;1.35;;
50205;SDS011;36098;48.390;10.856;2023-12-29T02:35:41;1.60;;;1.35;;
50205;SDS011;36098;48.390;10.856;2023-12-29T02:38:08;2.10;;;1.40;;
50205;SDS011;36098;48.390;10.856;2023-12-29T02:40:33;3.78;;;1.30;;
50205;SDS011;36098;48.390;10.856;2023-12-29T02:42:59;1.67;;;1.27;;
50205;SDS011;36098;48.390;10.856;2023-12-29T02:45:24;2.10;;;1.35;;
50205;SDS011;36098;48.390;10.856;2023-12-29T02:47:50;1.88;;;1.23;;
50205;SDS011;36098;48.390;10.856;2023-12-29T02:50:16;2.17;;;1.20;;
50205;SDS011;36098;48.390;10.856;2023-12-29T02:52:41;1.70;;;1.23;;
50205;SDS011;36098;48.390;10.856;2023-12-29T02:55:06;1.52;;;1.13;;
50205;SDS011;36098;48.390;10.856;2023-12-29T02:57:32;2.15;;;1.20;;
50205;SDS011;36098;48.390;10.856;2023-12-29T02:59:57;1.33;;;1.02;;
50205;SDS011;36098;48.390;10.856;2023-12-29T03:02:23;2.65;;;1.30;;
50205;SDS011;36098;48.390;10.856;2023-12-29T03:04:48;1.88;;;1.40;;
50205;SDS011;36098;48.390;10.856;2023-12-29T03:07:14;2.20;;;1.13;;
50205;SDS011;36098;48.390;10.856;2023-12-29T03:09:39;2.15;;;1.05;;
50205;SDS011;36098;48.390;10.856;2023-12-29T03:12:05;1.92;;;1.20;;
50205;SDS011;36098;48.390;10.856;2023-12-29T03:14:31;1.77;;;1.20;;
50205;SDS011;36098;48.390;10.856;2023-12-29T03:16:56;1.80;;;1.30;;
50205;SDS011;36098;48.390;10.856;2023-12-29T03:19:22;2.03;;;1.20;;
50205;SDS011;36098;48.390;10.856;2023-12-29T03:21:47;2.30;;;1.42;;
50205;SDS011;36098;48.390;10.856;2023-12-29T03:24:13;2.17;;;1.33;;
50205;SDS011;36098;48.390;10.856;2023-12-29T03:26:38;1.55;;;1.00;;
50205;SDS011;36098;48.390;10.856;2023-12-29T03:29:03;1.40;;;1.00;;
50205;SDS011;36098;48.390;10.856;2023-12-29T03:31:29;1.98;;;1.20;;
50205;SDS011;36098;48.390;10.856;2023-12-29T03:33:54;1.60;;;1.20;;
50205;SDS011;36098;48.390;10.856;2023-12-29T03:36:19;1.83;;;1.02;;
50205;SDS011;36098;48.390;10.856;2023-12-29T03:38:44;2.05;;;1.40;;
50205;SDS011;36098;48.390;10.856;2023-12-29T03:41:09;1.73;;;1.20;;
50205;SDS011;36098;48.390;10.856;2023-12-29T03:43:35;2.00;;;1.20;;
50205;SDS011;36098;48.390;10.856;2023-12-29T03:46:00;1.63;;;1.30;;
50205;SDS011;36098;48.390;10.856;2023-12-29T03:48:25;1.48;;;1.00;;
50205;SDS011;36098;48.390;10.856;2023-12-29T03:50:51;2.28;;;1.17;;
50205;SDS011;36098;48.390;10.856;2023-12-29T03:53:16;1.60;;;1.00;;
50205;SDS011;36098;48.390;10.856;2023-12-29T03:55:41;2.20;;;1.13;;
50205;SDS011;36098;48.390;10.856;2023-12-29T03:58:07;2.22;;;1.60;;
50205;SDS011;36098;48.390;10.856;2023-12-29T04:00:32;1.10;;;1.00;;
50205;SDS011;36098;48.390;10.856;2023-12-29T04:02:57;1.83;;;1.10;;
50205;SDS011;36098;48.390;10.856;2023-12-29T04:05:22;2.08;;;1.25;;
50205;SDS011;36098;48.390;10.856;2023-12-29T04:07:48;2.20;;;1.30;;
50205;SDS011;36098;48.390;10.856;2023-12-29T04:10:13;1.60;;;1.17;;
50205;SDS011;36098;48.390;10.856;2023-12-29T04:12:38;1.58;;;1.25;;
50205;SDS011;36098;48.390;10.856;2023-12-29T04:15:04;2.05;;;1.30;;
50205;SDS011;36098;48.390;10.856;2023-12-29T04:17:29;1.90;;;1.13;;
50205;SDS011;36098;48.390;10.856;2023-12-29T04:19:55;1.92;;;1.10;;
50205;SDS011;36098;48.390;10.856;2023-12-29T04:22:21;2.03;;;1.10;;
50205;SDS011;36098;48.390;10.856;2023-12-29T04:24:46;1.75;;;1.23;;
50205;SDS011;36098;48.390;10.856;2023-12-29T04:27:11;1.27;;;1.00;;
50205;SDS011;36098;48.390;10.856;2023-12-29T04:29:37;1.52;;;1.17;;
50205;SDS011;36098;48.390;10.856;2023-12-29T04:32:02;1.20;;;1.05;;
50205;SDS011;36098;48.390;10.856;2023-12-29T04:34:27;1.52;;;1.30;;
50205;SDS011;36098;48.390;10.856;2023-12-29T04:36:53;2.55;;;1.20;;
50205;SDS011;36098;48.390;10.856;2023-12-29T04:39:18;1.55;;;1.00;;
50205;SDS011;36098;48.390;10.856;2023-12-29T04:41:43;1.88;;;1.20;;
50205;SDS011;36098;48.390;10.856;2023-12-29T04:44:08;1.33;;;1.02;;
50205;SDS011;36098;48.390;10.856;2023-12-29T04:46:34;4.30;;;1.15;;
50205;SDS011;36098;48.390;10.856;2023-12-29T04:48:59;1.70;;;1.10;;
50205;SDS011;36098;48.390;10.856;2023-12-29T04:51:24;1.10;;;0.93;;
50205;SDS011;36098;48.390;10.856;2023-12-29T04:53:50;0.95;;;0.85;;
50205;SDS011;36098;48.390;10.856;2023-12-29T04:56:15;1.50;;;1.10;;
50205;SDS011;36098;48.390;10.856;2023-12-29T04:58:41;2.22;;;1.33;;
50205;SDS011;36098;48.390;10.856;2023-12-29T05:01:06;1.55;;;1.20;;
50205;SDS011;36098;48.390;10.856;2023-12-29T05:03:33;1.70;;;1.00;;
50205;SDS011;36098;48.390;10.856;2023-12-29T05:05:58;1.27;;;0.90;;
50205;SDS011;36098;48.390;10.856;2023-12-29T05:08:24;1.20;;;1.10;;
50205;SDS011;36098;48.390;10.856;2023-12-29T05:10:49;1.70;;;0.93;;
50205;SDS011;36098;48.390;10.856;2023-12-29T05:13:14;1.40;;;1.00;;
50205;SDS011;36098;48.390;10.856;2023-12-29T05:15:39;1.40;;;1.13;;
50205;SDS011;36098;48.390;10.856;2023-12-29T05:18:04;1.30;;;1.10;;
50205;SDS011;36098;48.390;10.856;2023-12-29T05:20:30;1.35;;;1.00;;
50205;SDS011;36098;48.390;10.856;2023-12-29T05:22:56;2.13;;;1.20;;
50205;SDS011;36098;48.390;10.856;2023-12-29T05:25:21;1.50;;;1.02;;
50205;SDS011;36098;48.390;10.856;2023-12-29T05:27:48;3.05;;;1.10;;
50205;SDS011;36098;48.390;10.856;2023-12-29T05:30:13;1.55;;;1.00;;
50205;SDS011;36098;48.390;10.856;2023-12-29T05:32:39;1.65;;;1.05;;
50205;SDS011;36098;48.390;10.856;2023-12-29T05:35:04;1.27;;;1.00;;
50205;SDS011;36098;48.390;10.856;2023-12-29T05:37:30;1.15;;;0.80;;
50205;SDS011;36098;48.390;10.856;2023-12-29T05:39:55;1.67;;;1.00;;
50205;SDS011;36098;48.390;10.856;2023-12-29T05:42:20;1.50;;;1.20;;
50205;SDS011;36098;48.390;10.856;2023-12-29T05:44:46;1.25;;;1.00;;
50205;SDS011;36098;48.390;10.856;2023-12-29T05:47:11;1.67;;;1.10;;
50205;SDS011;36098;48.390;10.856;2023-12-29T05:49:37;1.00;;;0.82;;
50205;SDS011;36098;48.390;10.856;2023-12-29T05:52:06;1.35;;;0.90;;
50205;SDS011;36098;48.390;10.856;2023-12-29T05:54:32;1.35;;;0.98;;
50205;SDS011;36098;48.390;10.856;2023-12-29T05:56:58;1.75;;;0.95;;
50205;SDS011;36098;48.390;10.856;2023-12-29T05:59:23;1.83;;;1.00;;
50205;SDS011;36098;48.390;10.856;2023-12-29T06:01:48;1.23;;;1.13;;
50205;SDS011;36098;48.390;10.856;2023-12-29T06:04:14;1.00;;;0.85;;
50205;SDS011;36098;48.390;10.856;2023-12-29T06:06:41;1.45;;;1.10;;
50205;SDS011;36098;48.390;10.856;2023-12-29T06:09:07;1.25;;;1.00;;
50205;SDS011;36098;48.390;10.856;2023-12-29T06:11:34;1.27;;;0.93;;
50205;SDS011;36098;48.390;10.856;2023-12-29T06:13:59;1.42;;;1.10;;
50205;SDS011;36098;48.390;10.856;2023-12-29T06:16:25;1.58;;;1.10;;
50205;SDS011;36098;48.390;10.856;2023-12-29T06:18:51;1.88;;;1.20;;
50205;SDS011;36098;48.390;10.856;2023-12-29T06:21:17;1.27;;;0.90;;
50205;SDS011;36098;48.390;10.856;2023-12-29T06:23:42;3.53;;;1.25;;
50205;SDS011;36098;48.390;10.856;2023-12-29T06:26:14;1.00;;;0.90;;
50205;SDS011;36098;48.390;10.856;2023-12-29T06:28:41;1.75;;;1.10;;
50205;SDS011;36098;48.390;10.856;2023-12-29T06:31:06;2.08;;;0.90;;
50205;SDS011;36098;48.390;10.856;2023-12-29T06:33:31;1.70;;;0.95;;
50205;SDS011;36098;48.390;10.856;2023-12-29T06:35:57;1.88;;;1.00;;
50205;SDS011;36098;48.390;10.856;2023-12-29T06:38:22;1.38;;;1.10;;
50205;SDS011;36098;48.390;10.856;2023-12-29T06:40:47;1.05;;;0.95;;
50205;SDS011;36098;48.390;10.856;2023-12-29T06:43:12;1.75;;;1.00;;
50205;SDS011;36098;48.390;10.856;2023-12-29T06:45:37;1.00;;;0.88;;
50205;SDS011;36098;48.390;10.856;2023-12-29T06:48:03;1.50;;;1.10;;
50205;SDS011;36098;48.390;10.856;2023-12-29T06:50:28;1.30;;;0.90;;
50205;SDS011;36098;48.390;10.856;2023-12-29T06:52:53;1.63;;;0.90;;
50205;SDS011;36098;48.390;10.856;2023-12-29T06:55:19;1.48;;;0.90;;
50205;SDS011;36098;48.390;10.856;2023-12-29T06:57:44;1.92;;;1.27;;
50205;SDS011;36098;48.390;10.856;2023-12-29T07:00:09;2.05;;;1.05;;
50205;SDS011;36098;48.390;10.856;2023-12-29T07:02:37;1.40;;;1.10;;
50205;SDS011;36098;48.390;10.856;2023-12-29T07:05:04;1.52;;;0.90;;
50205;SDS011;36098;48.390;10.856;2023-12-29T07:07:29;1.02;;;0.82;;
50205;SDS011;36098;48.390;10.856;2023-12-29T07:09:55;0.93;;;0.80;;
50205;SDS011;36098;48.390;10.856;2023-12-29T07:12:20;0.95;;;0.82;;
50205;SDS011;36098;48.390;10.856;2023-12-29T07:14:45;1.10;;;0.98;;
50205;SDS011;36098;48.390;10.856;2023-12-29T07:17:10;1.20;;;0.93;;
50205;SDS011;36098;48.390;10.856;2023-12-29T07:19:36;1.33;;;0.93;;
50205;SDS011;36098;48.390;10.856;2023-12-29T07:22:04;1.67;;;0.90;;
50205;SDS011;36098;48.390;10.856;2023-12-29T07:24:31;1.10;;;0.90;;
50205;SDS011;36098;48.390;10.856;2023-12-29T07:26:57;1.10;;;0.93;;
50205;SDS011;36098;48.390;10.856;2023-12-29T07:29:22;1.00;;;0.90;;
50205;SDS011;36098;48.390;10.856;2023-12-29T07:31:48;1.48;;;1.10;;
50205;SDS011;36098;48.390;10.856;2023-12-29T07:34:14;1.80;;;1.00;;
50205;SDS011;36098;48.390;10.856;2023-12-29T07:36:39;1.70;;;1.10;;
50205;SDS011;36098;48.390;10.856;2023-12-29T07:39:05;1.75;;;1.00;;
50205;SDS011;36098;48.390;10.856;2023-12-29T07:41:31;1.70;;;1.10;;
50205;SDS011;36098;48.390;10.856;2023-12-29T07:43:56;1.88;;;1.08;;
50205;SDS011;36098;48.390;10.856;2023-12-29T07:46:24;1.88;;;1.30;;
50205;SDS011;36098;48.390;10.856;2023-12-29T07:48:51;1.42;;;1.10;;
50205;SDS011;36098;48.390;10.856;2023-12-29T07:51:17;1.30;;;0.90;;
50205;SDS011;36098;48.390;10.856;2023-12-29T07:53:42;2.15;;;1.40;;
50205;SDS011;36098;48.390;10.856;2023-12-29T07:56:07;1.30;;;1.00;;
50205;SDS011;36098;48.390;10.856;2023-12-29T07:58:33;1.17;;;0.90;;
50205;SDS011;36098;48.390;10.856;2023-12-29T08:00:58;1.80;;;1.00;;
50205;SDS011;36098;48.390;10.856;2023-12-29T08:03:23;1.48;;;1.08;;
50205;SDS011;36098;48.390;10.856;2023-12-29T08:05:49;1.60;;;1.05;;
50205;SDS011;36098;48.390;10.856;2023-12-29T08:08:14;1.73;;;1.08;;
50205;SDS011;36098;48.390;10.856;2023-12-29T08:10:39;1.30;;;0.93;;
50205;SDS011;36098;48.390;10.856;2023-12-29T08:13:05;1.50;;;1.00;;
50205;SDS011;36098;48.390;10.856;2023-12-29T08:15:32;2.55;;;0.95;;
50205;SDS011;36098;48.390;10.856;2023-12-29T08:17:57;0.98;;;0.73;;
50205;SDS011;36098;48.390;10.856;2023-12-29T08:20:23;0.90;;;0.80;;
50205;SDS011;36098;48.390;10.856;2023-12-29T08:22:49;1.20;;;0.90;;
50205;SDS011;36098;48.390;10.856;2023-12-29T08:25:15;1.35;;;0.90;;
50205;SDS011;36098;48.390;10.856;2023-12-29T08:27:40;1.20;;;0.90;;
50205;SDS011;36098;48.390;10.856;2023-12-29T08:30:06;1.33;;;1.10;;
50205;SDS011;36098;48.390;10.856;2023-12-29T08:32:32;1.55;;;1.00;;
50205;SDS011;36098;48.390;10.856;2023-12-29T08:34:58;1.27;;;0.90;;
50205;SDS011;36098;48.390;10.856;2023-12-29T08:37:25;2.00;;;1.10;;
50205;SDS011;36098;48.390;10.856;2023-12-29T08:39:50;1.50;;;0.95;;
50205;SDS011;36098;48.390;10.856;2023-12-29T08:42:16;1.92;;;0.85;;
50205;SDS011;36098;48.390;10.856;2023-12-29T08:44:41;1.98;;;1.00;;
50205;SDS011;36098;48.390;10.856;2023-12-29T08:47:06;1.27;;;1.00;;
50205;SDS011;36098;48.390;10.856;2023-12-29T08:49:33;4.05;;;1.10;;
50205;SDS011;36098;48.390;10.856;2023-12-29T08:51:59;4.07;;;1.17;;
50205;SDS011;36098;48.390;10.856;2023-12-29T08:54:25;1.77;;;1.00;;
50205;SDS011;36098;48.390;10.856;2023-12-29T08:56:50;1.80;;;1.00;;
50205;SDS011;36098;48.390;10.856;2023-12-29T08:59:15;2.25;;;1.10;;
50205;SDS011;36098;48.390;10.856;2023-12-29T09:01:40;2.08;;;1.02;;
50205;SDS011;36098;48.390;10.856;2023-12-29T09:04:06;2.50;;;1.17;;
50205;SDS011;36098;48.390;10.856;2023-12-29T09:06:31;2.65;;;0.95;;
50205;SDS011;36098;48.390;10.856;2023-12-29T09:08:56;2.30;;;1.00;;
50205;SDS011;36098;48.390;10.856;2023-12-29T09:11:22;1.67;;;0.80;;
50205;SDS011;36098;48.390;10.856;2023-12-29T09:13:47;6.15;;;1.02;;
50205;SDS011;36098;48.390;10.856;2023-12-29T09:16:12;1.60;;;0.90;;
50205;SDS011;36098;48.390;10.856;2023-12-29T09:18:37;1.90;;;0.93;;
50205;SDS011;36098;48.390;10.856;2023-12-29T09:21:03;1.63;;;1.00;;
50205;SDS011;36098;48.390;10.856;2023-12-29T09:23:28;1.13;;;0.90;;
50205;SDS011;36098;48.390;10.856;2023-12-29T09:25:53;4.20;;;0.98;;
50205;SDS011;36098;48.390;10.856;2023-12-29T09:28:19;4.32;;;0.90;;
50205;SDS011;36098;48.390;10.856;2023-12-29T09:30:44;1.63;;;1.10;;
50205;SDS011;36098;48.390;10.856;2023-12-29T09:33:09;0.95;;;0.70;;
50205;SDS011;36098;48.390;10.856;2023-12-29T09:35:37;1.80;;;1.30;;
50205;SDS011;36098;48.390;10.856;2023-12-29T09:38:02;1.73;;;0.80;;
50205;SDS011;36098;48.390;10.856;2023-12-29T09:40:29;2.35;;;0.82;;
50205;SDS011;36098;48.390;10.856;2023-12-29T09:42:54;3.45;;;1.00;;
50205;SDS011;36098;48.390;10.856;2023-12-29T09:45:23;1.58;;;0.90;;
50205;SDS011;36098;48.390;10.856;2023-12-29T09:47:52;3.08;;;1.00;;
50205;SDS011;36098;48.390;10.856;2023-12-29T09:50:18;3.92;;;1.00;;
50205;SDS011;36098;48.390;10.856;2023-12-29T09:52:44;2.45;;;0.90;;
50205;SDS011;36098;48.390;10.856;2023-12-29T09:55:14;3.53;;;1.02;;
50205;SDS011;36098;48.390;10.856;2023-12-29T09:57:40;2.75;;;1.00;;
50205;SDS011;36098;48.390;10.856;2023-12-29T10:00:09;1.50;;;1.05;;
50205;SDS011;36098;48.390;10.856;2023-12-29T10:02:37;2.30;;;0.82;;
50205;SDS011;36098;48.390;10.856;2023-12-29T10:05:03;1.75;;;0.80;;
50205;SDS011;36098;48.390;10.856;2023-12-29T10:07:29;7.13;;;0.85;;
50205;SDS011;36098;48.390;10.856;2023-12-29T10:09:58;1.52;;;0.75;;
50205;SDS011;36098;48.390;10.856;2023-12-29T10:12:25;1.85;;;1.00;;
50205;SDS011;36098;48.390;10.856;2023-12-29T10:17:47;3.05;;;1.10;;
50205;SDS011;36098;48.390;10.856;2023-12-29T10:22:48;2.08;;;0.73;;
50205;SDS011;36098;48.390;10.856;2023-12-29T10:25:19;3.10;;;0.85;;
50205;SDS011;36098;48.390;10.856;2023-12-29T10:27:47;2.47;;;1.10;;
50205;SDS011;36098;48.390;10.856;2023-12-29T10:30:13;3.28;;;0.95;;
50205;SDS011;36098;48.390;10.856;2023-12-29T10:32:39;1.80;;;0.80;;
50205;SDS011;36098;48.390;10.856;2023-12-29T10:35:11;2.47;;;0.75;;
50205;SDS011;36098;48.390;10.856;2023-12-29T10:37:37;1.92;;;0.98;;
50205;SDS011;36098;48.390;10.856;2023-12-29T10:40:03;3.67;;;0.90;;
50205;SDS011;36098;48.390;10.856;2023-12-29T10:42:28;3.65;;;0.90;;
50205;SDS011;36098;48.390;10.856;2023-12-29T10:45:09;1.75;;;1.02;;
50205;SDS011;36098;48.390;10.856;2023-12-29T10:47:38;3.00;;;0.90;;
50205;SDS011;36098;48.390;10.856;2023-12-29T10:50:08;3.40;;;1.10;;
50205;SDS011;36098;48.390;10.856;2023-12-29T10:52:34;3.90;;;0.70;;
50205;SDS011;36098;48.390;10.856;2023-12-29T10:55:09;4.90;;;0.90;;
50205;SDS011;36098;48.390;10.856;2023-12-29T10:57:39;1.40;;;0.90;;
50205;SDS011;36098;48.390;10.856;2023-12-29T11:00:05;1.63;;;0.82;;
50205;SDS011;36098;48.390;10.856;2023-12-29T11:02:34;1.58;;;0.90;;
50205;SDS011;36098;48.390;10.856;2023-12-29T11:05:07;1.48;;;0.90;;
50205;SDS011;36098;48.390;10.856;2023-12-29T11:07:34;2.65;;;1.00;;
50205;SDS011;36098;48.390;10.856;2023-12-29T11:10:04;5.20;;;1.08;;
50205;SDS011;36098;48.390;10.856;2023-12-29T11:12:31;3.05;;;1.52;;
50205;SDS011;36098;48.390;10.856;2023-12-29T11:14:58;1.85;;;1.00;;
50205;SDS011;36098;48.390;10.856;2023-12-29T11:17:26;7.18;;;1.40;;
50205;SDS011;36098;48.390;10.856;2023-12-29T11:19:52;3.42;;;1.13;;
50205;SDS011;36098;48.390;10.856;2023-12-29T11:22:17;2.80;;;1.10;;
50205;SDS011;36098;48.390;10.856;2023-12-29T11:24:45;2.83;;;1.30;;
50205;SDS011;36098;48.390;10.856;2023-12-29T11:27:12;3.63;;;1.00;;
50205;SDS011;36098;48.390;10.856;2023-12-29T11:29:37;4.05;;;1.20;;
50205;SDS011;36098;48.390;10.856;2023-12-29T11:32:06;3.45;;;1.15;;
50205;SDS011;36098;48.390;10.856;2023-12-29T11:34:38;3.13;;;1.23;;
50205;SDS011;36098;48.390;10.856;2023-12-29T11:40:22;3.83;;;1.25;;
50205;SDS011;36098;48.390;10.856;2023-12-29T11:42:54;3.10;;;1.30;;
50205;SDS011;36098;48.390;10.856;2023-12-29T11:45:25;5.60;;;1.30;;
50205;SDS011;36098;48.390;10.856;2023-12-29T11:47:55;4.35;;;1.25;;
50205;SDS011;36098;48.390;10.856;2023-12-29T11:50:35;3.47;;;1.38;;
50205;SDS011;36098;48.390;10.856;2023-12-29T11:53:05;4.88;;;1.10;;
50205;SDS011;36098;48.390;10.856;2023-12-29T11:55:34;6.70;;;1.50;;
50205;SDS011;36098;48.390;10.856;2023-12-29T11:58:01;3.75;;;1.30;;
50205;SDS011;36098;48.390;10.856;2023-12-29T12:00:43;4.07;;;1.05;;
50205;SDS011;36098;48.390;10.856;2023-12-29T12:03:19;4.10;;;1.10;;
50205;SDS011;36098;48.390;10.856;2023-12-29T12:05:49;4.60;;;1.20;;
50205;SDS011;36098;48.390;10.856;2023-12-29T12:08:28;3.90;;;1.00;;
50205;SDS011;36098;48.390;10.856;2023-12-29T12:10:55;5.70;;;1.00;;
50205;SDS011;36098;48.390;10.856;2023-12-29T12:19:10;4.30;;;1.00;;
50205;SDS011;36098;48.390;10.856;2023-12-29T12:21:36;3.95;;;1.50;;
50205;SDS011;36098;48.390;10.856;2023-12-29T12:24:03;3.17;;;1.00;;
50205;SDS011;36098;48.390;10.856;2023-12-29T12:26:30;3.75;;;0.90;;
50205;SDS011;36098;48.390;10.856;2023-12-29T12:28:56;4.68;;;1.13;;
50205;SDS011;36098;48.390;10.856;2023-12-29T12:31:21;4.70;;;1.00;;
50205;SDS011;36098;48.390;10.856;2023-12-29T12:33:54;3.25;;;1.13;;
50205;SDS011;36098;48.390;10.856;2023-12-29T12:36:20;3.55;;;1.05;;
50205;SDS011;36098;48.390;10.856;2023-12-29T12:38:55;5.32;;;1.13;;
50205;SDS011;36098;48.390;10.856;2023-12-29T12:41:22;2.65;;;1.20;;
50205;SDS011;36098;48.390;10.856;2023-12-29T12:43:50;5.70;;;1.25;;
50205;SDS011;36098;48.390;10.856;2023-12-29T12:46:22;11.00;;;1.35;;
50205;SDS011;36098;48.390;10.856;2023-12-29T12:48:50;3.65;;;1.20;;
50205;SDS011;36098;48.390;10.856;2023-12-29T12:51:16;5.00;;;1.20;;
50205;SDS011;36098;48.390;10.856;2023-12-29T12:53:44;3.58;;;1.02;;
50205;SDS011;36098;48.390;10.856;2023-12-29T12:56:10;3.10;;;1.00;;
50205;SDS011;36098;48.390;10.856;2023-12-29T12:58:35;6.10;;;1.10;;
50205;SDS011;36098;48.390;10.856;2023-12-29T13:01:01;5.15;;;1.10;;
50205;SDS011;36098;48.390;10.856;2023-12-29T13:03:27;4.10;;;1.02;;
50205;SDS011;36098;48.390;10.856;2023-12-29T13:05:53;5.53;;;1.25;;
50205;SDS011;36098;48.390;10.856;2023-12-29T13:08:18;6.90;;;1.45;;
50205;SDS011;36098;48.390;10.856;2023-12-29T13:10:44;3.00;;;1.10;;
50205;SDS011;36098;48.390;10.856;2023-12-29T13:13:10;4.22;;;1.48;;
50205;SDS011;36098;48.390;10.856;2023-12-29T13:15:44;6.30;;;1.15;;
50205;SDS011;36098;48.390;10.856;2023-12-29T13:18:13;6.55;;;1.50;;
50205;SDS011;36098;48.390;10.856;2023-12-29T13:20:48;7.10;;;1.15;;
50205;SDS011;36098;48.390;10.856;2023-12-29T13:23:13;4.00;;;1.40;;
50205;SDS011;36098;48.390;10.856;2023-12-29T13:25:39;6.15;;;1.33;;
50205;SDS011;36098;48.390;10.856;2023-12-29T13:28:05;5.68;;;1.05;;
50205;SDS011;36098;48.390;10.856;2023-12-29T13:30:31;5.22;;;1.33;;
50205;SDS011;36098;48.390;10.856;2023-12-29T13:32:57;4.35;;;1.20;;
50205;SDS011;36098;48.390;10.856;2023-12-29T13:35:34;3.80;;;1.50;;
50205;SDS011;36098;48.390;10.856;2023-12-29T13:38:12;5.35;;;1.00;;
50205;SDS011;36098;48.390;10.856;2023-12-29T13:40:49;7.25;;;1.17;;
50205;SDS011;36098;48.390;10.856;2023-12-29T13:43:23;2.65;;;1.10;;
50205;SDS011;36098;48.390;10.856;2023-12-29T13:45:49;3.13;;;1.05;;
50205;SDS011;36098;48.390;10.856;2023-12-29T13:48:15;8.05;;;1.20;;
50205;SDS011;36098;48.390;10.856;2023-12-29T13:50:44;3.88;;;1.10;;
50205;SDS011;36098;48.390;10.856;2023-12-29T13:53:15;10.25;;;0.93;;
50205;SDS011;36098;48.390;10.856;2023-12-29T13:55:42;4.82;;;0.98;;
50205;SDS011;36098;48.390;10.856;2023-12-29T13:58:11;3.25;;;1.05;;
50205;SDS011;36098;48.390;10.856;2023-12-29T14:00:37;4.47;;;1.08;;
50205;SDS011;36098;48.390;10.856;2023-12-29T14:03:23;4.13;;;1.20;;
50205;SDS011;36098;48.390;10.856;2023-12-29T14:06:03;6.15;;;1.27;;
50205;SDS011;36098;48.390;10.856;2023-12-29T14:08:33;8.98;;;1.10;;
50205;SDS011;36098;48.390;10.856;2023-12-29T14:11:08;3.25;;;1.20;;
50205;SDS011;36098;48.390;10.856;2023-12-29T14:13:34;8.23;;;1.25;;
50205;SDS011;36098;48.390;10.856;2023-12-29T14:15:59;4.68;;;1.30;;
50205;SDS011;36098;48.390;10.856;2023-12-29T14:24:07;5.60;;;1.40;;
50205;SDS011;36098;48.390;10.856;2023-12-29T14:26:37;5.72;;;1.40;;
50205;SDS011;36098;48.390;10.856;2023-12-29T14:29:09;11.35;;;1.27;;
50205;SDS011;36098;48.390;10.856;2023-12-29T14:31:40;6.60;;;1.45;;
50205;SDS011;36098;48.390;10.856;2023-12-29T14:34:07;8.32;;;1.45;;
50205;SDS011;36098;48.390;10.856;2023-12-29T14:36:33;14.65;;;1.65;;
50205;SDS011;36098;48.390;10.856;2023-12-29T14:38:59;6.40;;;1.20;;
50205;SDS011;36098;48.390;10.856;2023-12-29T14:41:25;6.35;;;1.48;;
50205;SDS011;36098;48.390;10.856;2023-12-29T14:43:51;5.28;;;1.38;;
50205;SDS011;36098;48.390;10.856;2023-12-29T14:46:16;9.10;;;1.63;;
50205;SDS011;36098;48.390;10.856;2023-12-29T14:48:42;6.80;;;1.58;;
50205;SDS011;36098;48.390;10.856;2023-12-29T14:51:08;7.93;;;1.40;;
50205;SDS011;36098;48.390;10.856;2023-12-29T14:53:33;14.55;;;1.60;;